sensor_id;sensor_type;location;lat;lon;timestamp;temperature;humidity
20102;DHT22;10210;52.284;9.892;2023-06-19T00:02:21;25.20;92.90
20102;DHT22;10210;52.284;9.892;2023-06-19T00:04:47;25.10;92.80
20102;DHT22;10210;52.284;9.892;2023-06-19T00:07:13;25.10;92.90
20102;DHT22;10210;52.284;9.892;2023-06-19T00:09:39;25.10;92.90
20102;DHT22;10210;52.284;9.892;2023-06-19T00:12:05;25.10;93.00
20102;DHT22;10210;52.284;9.892;2023-06-19T00:14:31;25.10;93.00
20102;DHT22;10210;52.284;9.892;2023-06-19T00:16:56;25.10;93.10
20102;DHT22;10210;52.284;9.892;2023-06-19T00:19:22;25.00;93.10
20102;DHT22;10210;52.284;9.892;2023-06-19T00:21:48;25.00;93.20
20102;DHT22;10210;52.284;9.892;2023-06-19T00:24:14;25.00;93.20
20102;DHT22;10210;52.284;9.892;2023-06-19T00:26:39;24.90;93.30
20102;DHT22;10210;52.284;9.892;2023-06-19T00:29:05;24.90;93.30
20102;DHT22;10210;52.284;9.892;2023-06-19T00:31:32;24.90;93.30
20102;DHT22;10210;52.284;9.892;2023-06-19T00:33:57;24.80;93.30
20102;DHT22;10210;52.284;9.892;2023-06-19T00:36:23;24.80;93.40
20102;DHT22;10210;52.284;9.892;2023-06-19T00:38:51;24.80;93.40
20102;DHT22;10210;52.284;9.892;2023-06-19T00:41:18;24.80;93.40
20102;DHT22;10210;52.284;9.892;2023-06-19T00:43:44;24.70;93.50
20102;DHT22;10210;52.284;9.892;2023-06-19T00:46:11;24.80;93.50
20102;DHT22;10210;52.284;9.892;2023-06-19T00:48:37;24.70;93.50
20102;DHT22;10210;52.284;9.892;2023-06-19T00:51:03;24.70;93.60
20102;DHT22;10210;52.284;9.892;2023-06-19T00:53:31;24.70;93.60
20102;DHT22;10210;52.284;9.892;2023-06-19T00:55:59;24.80;93.60
20102;DHT22;10210;52.284;9.892;2023-06-19T00:58:26;24.70;93.60
20102;DHT22;10210;52.284;9.892;2023-06-19T01:00:52;24.80;93.70
20102;DHT22;10210;52.284;9.892;2023-06-19T01:03:18;24.80;93.70
20102;DHT22;10210;52.284;9.892;2023-06-19T01:05:47;24.80;93.70
20102;DHT22;10210;52.284;9.892;2023-06-19T01:08:40;24.80;93.90
20102;DHT22;10210;52.284;9.892;2023-06-19T01:11:09;24.80;94.10
20102;DHT22;10210;52.284;9.892;2023-06-19T01:13:46;24.90;93.90
20102;DHT22;10210;52.284;9.892;2023-06-19T01:16:14;24.90;94.00
20102;DHT22;10210;52.284;9.892;2023-06-19T01:18:42;24.90;94.10
20102;DHT22;10210;52.284;9.892;2023-06-19T01:21:13;25.00;94.20
20102;DHT22;10210;52.284;9.892;2023-06-19T01:23:42;25.00;94.40
20102;DHT22;10210;52.284;9.892;2023-06-19T01:26:09;25.10;94.30
20102;DHT22;10210;52.284;9.892;2023-06-19T01:28:41;25.10;94.30
20102;DHT22;10210;52.284;9.892;2023-06-19T01:31:30;25.10;94.20
20102;DHT22;10210;52.284;9.892;2023-06-19T01:33:59;25.10;94.60
20102;DHT22;10210;52.284;9.892;2023-06-19T01:36:29;25.10;93.90
20102;DHT22;10210;52.284;9.892;2023-06-19T01:38:57;25.20;93.90
20102;DHT22;10210;52.284;9.892;2023-06-19T01:41:25;25.10;94.00
20102;DHT22;10210;52.284;9.892;2023-06-19T01:43:52;25.10;93.90
20102;DHT22;10210;52.284;9.892;2023-06-19T01:46:18;25.20;94.00
20102;DHT22;10210;52.284;9.892;2023-06-19T01:48:44;25.20;94.00
20102;DHT22;10210;52.284;9.892;2023-06-19T01:51:10;25.20;94.00
20102;DHT22;10210;52.284;9.892;2023-06-19T01:53:36;25.20;94.00
20102;DHT22;10210;52.284;9.892;2023-06-19T01:56:02;25.20;94.10
20102;DHT22;10210;52.284;9.892;2023-06-19T01:58:28;25.20;94.10
20102;DHT22;10210;52.284;9.892;2023-06-19T02:00:54;25.20;94.00
20102;DHT22;10210;52.284;9.892;2023-06-19T02:03:20;25.20;94.00
20102;DHT22;10210;52.284;9.892;2023-06-19T02:05:46;25.20;94.10
20102;DHT22;10210;52.284;9.892;2023-06-19T02:08:12;25.20;94.10
20102;DHT22;10210;52.284;9.892;2023-06-19T02:10:38;25.10;94.10
20102;DHT22;10210;52.284;9.892;2023-06-19T02:13:04;25.10;94.20
20102;DHT22;10210;52.284;9.892;2023-06-19T02:15:29;25.10;94.10
20102;DHT22;10210;52.284;9.892;2023-06-19T02:17:56;25.10;94.10
20102;DHT22;10210;52.284;9.892;2023-06-19T02:20:23;25.00;94.10
20102;DHT22;10210;52.284;9.892;2023-06-19T02:22:52;25.00;94.10
20102;DHT22;10210;52.284;9.892;2023-06-19T02:25:18;24.90;94.10
20102;DHT22;10210;52.284;9.892;2023-06-19T02:27:44;24.90;94.10
20102;DHT22;10210;52.284;9.892;2023-06-19T02:30:10;24.90;94.10
20102;DHT22;10210;52.284;9.892;2023-06-19T02:32:36;24.90;94.60
20102;DHT22;10210;52.284;9.892;2023-06-19T02:35:04;24.90;94.80
20102;DHT22;10210;52.284;9.892;2023-06-19T02:37:31;24.90;95.00
20102;DHT22;10210;52.284;9.892;2023-06-19T02:39:57;24.90;94.80
20102;DHT22;10210;52.284;9.892;2023-06-19T02:42:23;24.90;94.90
20102;DHT22;10210;52.284;9.892;2023-06-19T02:44:49;24.80;94.90
20102;DHT22;10210;52.284;9.892;2023-06-19T02:47:14;24.80;94.80
20102;DHT22;10210;52.284;9.892;2023-06-19T02:49:40;24.80;94.80
20102;DHT22;10210;52.284;9.892;2023-06-19T02:52:06;24.70;94.80
20102;DHT22;10210;52.284;9.892;2023-06-19T02:54:32;24.70;94.90
20102;DHT22;10210;52.284;9.892;2023-06-19T02:56:58;24.60;95.00
20102;DHT22;10210;52.284;9.892;2023-06-19T02:59:25;24.60;95.00
20102;DHT22;10210;52.284;9.892;2023-06-19T03:01:51;24.60;95.00
20102;DHT22;10210;52.284;9.892;2023-06-19T03:04:17;24.50;95.10
20102;DHT22;10210;52.284;9.892;2023-06-19T03:06:42;24.50;95.60
20102;DHT22;10210;52.284;9.892;2023-06-19T03:09:08;24.40;95.20
20102;DHT22;10210;52.284;9.892;2023-06-19T03:11:39;24.40;95.30
20102;DHT22;10210;52.284;9.892;2023-06-19T03:14:05;24.40;95.40
20102;DHT22;10210;52.284;9.892;2023-06-19T03:16:35;24.30;95.40
20102;DHT22;10210;52.284;9.892;2023-06-19T03:19:01;24.30;95.40
20102;DHT22;10210;52.284;9.892;2023-06-19T03:21:27;24.30;95.70
20102;DHT22;10210;52.284;9.892;2023-06-19T03:23:53;24.30;95.70
20102;DHT22;10210;52.284;9.892;2023-06-19T03:26:20;24.30;95.50
20102;DHT22;10210;52.284;9.892;2023-06-19T03:28:46;24.30;95.70
20102;DHT22;10210;52.284;9.892;2023-06-19T03:31:13;24.30;95.70
20102;DHT22;10210;52.284;9.892;2023-06-19T03:33:39;24.20;95.70
20102;DHT22;10210;52.284;9.892;2023-06-19T03:36:05;24.20;95.80
20102;DHT22;10210;52.284;9.892;2023-06-19T03:38:31;24.20;95.70
20102;DHT22;10210;52.284;9.892;2023-06-19T03:40:57;24.20;95.60
20102;DHT22;10210;52.284;9.892;2023-06-19T03:43:22;24.20;96.10
20102;DHT22;10210;52.284;9.892;2023-06-19T03:45:48;24.30;96.10
20102;DHT22;10210;52.284;9.892;2023-06-19T03:48:16;24.30;96.00
20102;DHT22;10210;52.284;9.892;2023-06-19T03:50:42;24.30;96.00
20102;DHT22;10210;52.284;9.892;2023-06-19T03:53:08;24.30;95.90
20102;DHT22;10210;52.284;9.892;2023-06-19T03:55:34;24.30;96.20
20102;DHT22;10210;52.284;9.892;2023-06-19T03:58:00;24.30;96.30
20102;DHT22;10210;52.284;9.892;2023-06-19T04:00:25;24.20;96.20
20102;DHT22;10210;52.284;9.892;2023-06-19T04:02:51;24.20;96.20
20102;DHT22;10210;52.284;9.892;2023-06-19T04:05:17;24.10;96.20
20102;DHT22;10210;52.284;9.892;2023-06-19T04:07:43;24.10;96.20
20102;DHT22;10210;52.284;9.892;2023-06-19T04:10:09;24.00;96.40
20102;DHT22;10210;52.284;9.892;2023-06-19T04:12:37;23.90;96.20
20102;DHT22;10210;52.284;9.892;2023-06-19T04:15:05;23.90;96.30
20102;DHT22;10210;52.284;9.892;2023-06-19T04:17:32;23.90;96.30
20102;DHT22;10210;52.284;9.892;2023-06-19T04:19:57;23.80;96.50
20102;DHT22;10210;52.284;9.892;2023-06-19T04:22:23;23.80;96.50
20102;DHT22;10210;52.284;9.892;2023-06-19T04:24:49;23.80;96.50
20102;DHT22;10210;52.284;9.892;2023-06-19T04:27:14;23.80;96.60
20102;DHT22;10210;52.284;9.892;2023-06-19T04:29:40;23.70;96.70
20102;DHT22;10210;52.284;9.892;2023-06-19T04:32:06;23.70;96.70
20102;DHT22;10210;52.284;9.892;2023-06-19T04:34:37;23.70;96.70
20102;DHT22;10210;52.284;9.892;2023-06-19T04:37:04;23.70;96.80
20102;DHT22;10210;52.284;9.892;2023-06-19T04:39:30;23.70;96.80
20102;DHT22;10210;52.284;9.892;2023-06-19T04:41:55;23.70;96.90
20102;DHT22;10210;52.284;9.892;2023-06-19T04:44:21;23.70;96.80
20102;DHT22;10210;52.284;9.892;2023-06-19T04:46:47;23.70;96.80
20102;DHT22;10210;52.284;9.892;2023-06-19T04:49:13;23.70;96.80
20102;DHT22;10210;52.284;9.892;2023-06-19T04:51:40;23.70;96.90
20102;DHT22;10210;52.284;9.892;2023-06-19T04:54:06;23.70;96.90
20102;DHT22;10210;52.284;9.892;2023-06-19T04:56:32;23.70;96.80
20102;DHT22;10210;52.284;9.892;2023-06-19T04:58:58;23.80;96.90
20102;DHT22;10210;52.284;9.892;2023-06-19T05:01:26;23.80;96.80
20102;DHT22;10210;52.284;9.892;2023-06-19T05:03:56;23.80;96.90
20102;DHT22;10210;52.284;9.892;2023-06-19T05:06:23;23.80;97.00
20102;DHT22;10210;52.284;9.892;2023-06-19T05:08:48;23.90;97.50
20102;DHT22;10210;52.284;9.892;2023-06-19T05:11:14;23.90;97.80
20102;DHT22;10210;52.284;9.892;2023-06-19T05:13:40;23.90;97.80
20102;DHT22;10210;52.284;9.892;2023-06-19T05:16:05;24.00;97.90
20102;DHT22;10210;52.284;9.892;2023-06-19T05:18:31;24.00;98.10
20102;DHT22;10210;52.284;9.892;2023-06-19T05:20:56;24.00;98.30
20102;DHT22;10210;52.284;9.892;2023-06-19T05:23:22;24.00;98.30
20102;DHT22;10210;52.284;9.892;2023-06-19T05:25:48;23.90;98.30
20102;DHT22;10210;52.284;9.892;2023-06-19T05:28:13;23.90;98.30
20102;DHT22;10210;52.284;9.892;2023-06-19T05:30:39;23.90;98.00
20102;DHT22;10210;52.284;9.892;2023-06-19T05:33:04;23.80;98.00
20102;DHT22;10210;52.284;9.892;2023-06-19T05:35:30;23.70;98.20
20102;DHT22;10210;52.284;9.892;2023-06-19T05:37:57;23.70;98.40
20102;DHT22;10210;52.284;9.892;2023-06-19T05:40:23;23.60;98.70
20102;DHT22;10210;52.284;9.892;2023-06-19T05:42:48;23.50;98.80
20102;DHT22;10210;52.284;9.892;2023-06-19T05:45:14;23.50;99.00
20102;DHT22;10210;52.284;9.892;2023-06-19T05:47:40;23.50;99.10
20102;DHT22;10210;52.284;9.892;2023-06-19T05:50:06;23.50;99.00
20102;DHT22;10210;52.284;9.892;2023-06-19T05:52:31;23.50;99.00
20102;DHT22;10210;52.284;9.892;2023-06-19T05:54:57;23.50;99.00
20102;DHT22;10210;52.284;9.892;2023-06-19T05:57:23;23.60;99.00
20102;DHT22;10210;52.284;9.892;2023-06-19T05:59:50;23.60;99.20
20102;DHT22;10210;52.284;9.892;2023-06-19T06:02:17;23.60;99.20
20102;DHT22;10210;52.284;9.892;2023-06-19T06:04:44;23.60;99.60
20102;DHT22;10210;52.284;9.892;2023-06-19T06:07:10;23.60;99.20
20102;DHT22;10210;52.284;9.892;2023-06-19T06:09:35;23.70;99.20
20102;DHT22;10210;52.284;9.892;2023-06-19T06:12:01;23.70;99.30
20102;DHT22;10210;52.284;9.892;2023-06-19T06:14:27;23.70;99.30
20102;DHT22;10210;52.284;9.892;2023-06-19T06:16:53;23.70;99.50
20102;DHT22;10210;52.284;9.892;2023-06-19T06:19:22;23.80;99.70
20102;DHT22;10210;52.284;9.892;2023-06-19T06:21:50;23.90;99.90
20102;DHT22;10210;52.284;9.892;2023-06-19T06:24:16;24.00;99.80
20102;DHT22;10210;52.284;9.892;2023-06-19T06:26:42;24.10;99.70
20102;DHT22;10210;52.284;9.892;2023-06-19T06:29:08;24.20;99.70
20102;DHT22;10210;52.284;9.892;2023-06-19T06:31:34;24.20;99.60
20102;DHT22;10210;52.284;9.892;2023-06-19T06:34:03;24.30;99.40
20102;DHT22;10210;52.284;9.892;2023-06-19T06:36:29;24.40;99.50
20102;DHT22;10210;52.284;9.892;2023-06-19T06:38:55;24.40;99.50
20102;DHT22;10210;52.284;9.892;2023-06-19T06:41:20;24.50;99.60
20102;DHT22;10210;52.284;9.892;2023-06-19T06:43:46;24.50;99.60
20102;DHT22;10210;52.284;9.892;2023-06-19T06:46:11;24.50;99.60
20102;DHT22;10210;52.284;9.892;2023-06-19T06:48:37;24.50;99.60
20102;DHT22;10210;52.284;9.892;2023-06-19T06:51:03;24.60;99.50
20102;DHT22;10210;52.284;9.892;2023-06-19T06:53:29;24.60;99.30
20102;DHT22;10210;52.284;9.892;2023-06-19T06:55:57;24.60;99.20
20102;DHT22;10210;52.284;9.892;2023-06-19T06:58:25;24.70;99.30
20102;DHT22;10210;52.284;9.892;2023-06-19T07:00:51;24.70;99.30
20102;DHT22;10210;52.284;9.892;2023-06-19T07:03:17;24.70;99.40
20102;DHT22;10210;52.284;9.892;2023-06-19T07:05:43;24.70;99.30
20102;DHT22;10210;52.284;9.892;2023-06-19T07:08:09;24.80;99.20
20102;DHT22;10210;52.284;9.892;2023-06-19T07:10:35;24.80;98.90
20102;DHT22;10210;52.284;9.892;2023-06-19T07:13:01;24.90;98.80
20102;DHT22;10210;52.284;9.892;2023-06-19T07:15:27;24.90;98.70
20102;DHT22;10210;52.284;9.892;2023-06-19T07:17:52;25.00;98.50
20102;DHT22;10210;52.284;9.892;2023-06-19T07:20:18;25.10;98.40
20102;DHT22;10210;52.284;9.892;2023-06-19T07:22:44;25.10;98.30
20102;DHT22;10210;52.284;9.892;2023-06-19T07:25:11;25.20;98.20
20102;DHT22;10210;52.284;9.892;2023-06-19T07:27:39;25.30;98.20
20102;DHT22;10210;52.284;9.892;2023-06-19T07:30:06;25.40;98.10
20102;DHT22;10210;52.284;9.892;2023-06-19T07:32:32;25.40;98.10
20102;DHT22;10210;52.284;9.892;2023-06-19T07:34:58;25.50;98.40
20102;DHT22;10210;52.284;9.892;2023-06-19T07:37:23;25.50;98.70
20102;DHT22;10210;52.284;9.892;2023-06-19T07:39:50;25.60;98.70
20102;DHT22;10210;52.284;9.892;2023-06-19T07:42:20;25.70;98.80
20102;DHT22;10210;52.284;9.892;2023-06-19T07:44:46;25.80;98.80
20102;DHT22;10210;52.284;9.892;2023-06-19T07:47:12;25.80;98.70
20102;DHT22;10210;52.284;9.892;2023-06-19T07:49:38;25.90;98.60
20102;DHT22;10210;52.284;9.892;2023-06-19T07:52:04;26.00;98.80
20102;DHT22;10210;52.284;9.892;2023-06-19T07:54:31;26.10;99.30
20102;DHT22;10210;52.284;9.892;2023-06-19T07:56:58;26.30;99.50
20102;DHT22;10210;52.284;9.892;2023-06-19T07:59:24;26.50;99.80
20102;DHT22;10210;52.284;9.892;2023-06-19T08:01:50;26.80;99.50
20102;DHT22;10210;52.284;9.892;2023-06-19T08:04:15;27.00;98.80
20102;DHT22;10210;52.284;9.892;2023-06-19T08:06:41;27.20;99.00
20102;DHT22;10210;52.284;9.892;2023-06-19T08:09:06;27.50;99.40
20102;DHT22;10210;52.284;9.892;2023-06-19T08:11:32;27.70;98.90
20102;DHT22;10210;52.284;9.892;2023-06-19T08:13:58;28.00;98.40
20102;DHT22;10210;52.284;9.892;2023-06-19T08:16:25;28.20;97.80
20102;DHT22;10210;52.284;9.892;2023-06-19T08:18:51;28.30;97.10
20102;DHT22;10210;52.284;9.892;2023-06-19T08:21:17;28.40;97.20
20102;DHT22;10210;52.284;9.892;2023-06-19T08:23:43;28.50;97.10
20102;DHT22;10210;52.284;9.892;2023-06-19T08:26:09;28.50;96.70
20102;DHT22;10210;52.284;9.892;2023-06-19T08:28:36;28.50;96.20
20102;DHT22;10210;52.284;9.892;2023-06-19T08:31:03;28.50;96.40
20102;DHT22;10210;52.284;9.892;2023-06-19T08:33:29;28.60;96.80
20102;DHT22;10210;52.284;9.892;2023-06-19T08:35:54;28.70;97.30
20102;DHT22;10210;52.284;9.892;2023-06-19T08:38:20;28.90;97.50
20102;DHT22;10210;52.284;9.892;2023-06-19T08:40:45;29.10;97.50
20102;DHT22;10210;52.284;9.892;2023-06-19T08:43:11;29.40;97.60
20102;DHT22;10210;52.284;9.892;2023-06-19T08:45:37;29.70;97.50
20102;DHT22;10210;52.284;9.892;2023-06-19T08:48:04;30.00;97.40
20102;DHT22;10210;52.284;9.892;2023-06-19T08:50:31;30.30;97.10
20102;DHT22;10210;52.284;9.892;2023-06-19T08:52:57;30.60;97.10
20102;DHT22;10210;52.284;9.892;2023-06-19T08:55:23;30.90;97.10
20102;DHT22;10210;52.284;9.892;2023-06-19T08:57:50;31.10;96.50
20102;DHT22;10210;52.284;9.892;2023-06-19T09:00:28;31.30;95.90
20102;DHT22;10210;52.284;9.892;2023-06-19T09:03:02;31.50;95.40
20102;DHT22;10210;52.284;9.892;2023-06-19T09:05:29;31.70;95.20
20102;DHT22;10210;52.284;9.892;2023-06-19T09:07:57;31.90;95.30
20102;DHT22;10210;52.284;9.892;2023-06-19T09:10:26;32.00;94.80
20102;DHT22;10210;52.284;9.892;2023-06-19T09:13:03;32.10;95.00
20102;DHT22;10210;52.284;9.892;2023-06-19T09:15:32;32.20;94.40
20102;DHT22;10210;52.284;9.892;2023-06-19T09:18:07;32.30;94.50
20102;DHT22;10210;52.284;9.892;2023-06-19T09:20:39;32.30;94.10
20102;DHT22;10210;52.284;9.892;2023-06-19T09:23:12;32.40;94.30
20102;DHT22;10210;52.284;9.892;2023-06-19T09:25:49;32.40;94.40
20102;DHT22;10210;52.284;9.892;2023-06-19T09:28:24;32.50;93.80
20102;DHT22;10210;52.284;9.892;2023-06-19T09:30:59;32.50;93.70
20102;DHT22;10210;52.284;9.892;2023-06-19T09:33:32;32.50;93.80
20102;DHT22;10210;52.284;9.892;2023-06-19T09:36:00;32.50;93.80
20102;DHT22;10210;52.284;9.892;2023-06-19T09:38:29;32.60;93.70
20102;DHT22;10210;52.284;9.892;2023-06-19T09:41:00;32.60;93.40
20102;DHT22;10210;52.284;9.892;2023-06-19T09:46:10;32.70;93.40
20102;DHT22;10210;52.284;9.892;2023-06-19T09:48:44;32.70;93.10
20102;DHT22;10210;52.284;9.892;2023-06-19T09:51:20;32.70;93.10
20102;DHT22;10210;52.284;9.892;2023-06-19T09:53:53;32.80;93.00
20102;DHT22;10210;52.284;9.892;2023-06-19T09:56:19;32.70;92.90
20102;DHT22;10210;52.284;9.892;2023-06-19T09:58:51;32.70;92.90
20102;DHT22;10210;52.284;9.892;2023-06-19T10:01:19;32.60;93.10
20102;DHT22;10210;52.284;9.892;2023-06-19T10:03:45;32.50;93.00
20102;DHT22;10210;52.284;9.892;2023-06-19T10:06:15;32.50;93.00
20102;DHT22;10210;52.284;9.892;2023-06-19T10:08:43;32.50;93.00
20102;DHT22;10210;52.284;9.892;2023-06-19T10:11:10;32.40;92.80
20102;DHT22;10210;52.284;9.892;2023-06-19T10:13:39;32.30;92.60
20102;DHT22;10210;52.284;9.892;2023-06-19T10:16:06;32.20;92.80
20102;DHT22;10210;52.284;9.892;2023-06-19T10:18:44;32.00;92.70
20102;DHT22;10210;52.284;9.892;2023-06-19T10:21:21;31.90;93.00
20102;DHT22;10210;52.284;9.892;2023-06-19T10:24:01;31.80;93.00
20102;DHT22;10210;52.284;9.892;2023-06-19T10:26:34;31.70;93.10
20102;DHT22;10210;52.284;9.892;2023-06-19T10:29:00;31.70;93.30
20102;DHT22;10210;52.284;9.892;2023-06-19T10:31:26;31.60;93.10
20102;DHT22;10210;52.284;9.892;2023-06-19T10:33:54;31.60;93.30
20102;DHT22;10210;52.284;9.892;2023-06-19T10:36:21;31.50;93.20
20102;DHT22;10210;52.284;9.892;2023-06-19T10:38:51;31.40;93.30
20102;DHT22;10210;52.284;9.892;2023-06-19T10:41:18;31.40;93.40
20102;DHT22;10210;52.284;9.892;2023-06-19T10:44:03;31.40;93.50
20102;DHT22;10210;52.284;9.892;2023-06-19T10:46:33;31.50;93.60
20102;DHT22;10210;52.284;9.892;2023-06-19T10:49:05;31.50;93.60
20102;DHT22;10210;52.284;9.892;2023-06-19T10:51:40;31.60;94.00
20102;DHT22;10210;52.284;9.892;2023-06-19T10:54:09;31.60;93.60
20102;DHT22;10210;52.284;9.892;2023-06-19T10:56:35;31.70;93.70
20102;DHT22;10210;52.284;9.892;2023-06-19T10:59:11;31.70;93.80
20102;DHT22;10210;52.284;9.892;2023-06-19T11:01:41;31.80;93.70
20102;DHT22;10210;52.284;9.892;2023-06-19T11:04:11;31.80;93.50
20102;DHT22;10210;52.284;9.892;2023-06-19T11:06:40;31.80;93.30
20102;DHT22;10210;52.284;9.892;2023-06-19T11:09:10;31.70;93.40
20102;DHT22;10210;52.284;9.892;2023-06-19T11:11:47;31.70;93.60
20102;DHT22;10210;52.284;9.892;2023-06-19T11:14:15;31.70;93.90
20102;DHT22;10210;52.284;9.892;2023-06-19T11:16:44;31.80;93.90
20102;DHT22;10210;52.284;9.892;2023-06-19T11:19:16;31.80;93.90
20102;DHT22;10210;52.284;9.892;2023-06-19T11:21:46;31.90;93.80
20102;DHT22;10210;52.284;9.892;2023-06-19T11:24:14;31.90;93.70
20102;DHT22;10210;52.284;9.892;2023-06-19T11:26:45;31.90;93.60
20102;DHT22;10210;52.284;9.892;2023-06-19T11:31:47;31.90;93.70
20102;DHT22;10210;52.284;9.892;2023-06-19T11:34:14;31.80;93.70
20102;DHT22;10210;52.284;9.892;2023-06-19T11:36:41;31.80;93.80
20102;DHT22;10210;52.284;9.892;2023-06-19T11:39:11;31.70;93.70
20102;DHT22;10210;52.284;9.892;2023-06-19T11:41:43;31.70;93.70
20102;DHT22;10210;52.284;9.892;2023-06-19T11:44:10;31.70;93.70
20102;DHT22;10210;52.284;9.892;2023-06-19T11:46:35;31.60;93.40
20102;DHT22;10210;52.284;9.892;2023-06-19T11:49:12;31.60;93.20
20102;DHT22;10210;52.284;9.892;2023-06-19T11:51:40;31.70;92.50
20102;DHT22;10210;52.284;9.892;2023-06-19T11:54:07;31.70;92.90
20102;DHT22;10210;52.284;9.892;2023-06-19T11:56:35;31.70;92.90
20102;DHT22;10210;52.284;9.892;2023-06-19T11:59:02;31.70;92.50
20102;DHT22;10210;52.284;9.892;2023-06-19T12:01:29;31.80;92.40
20102;DHT22;10210;52.284;9.892;2023-06-19T12:03:55;31.80;92.40
20102;DHT22;10210;52.284;9.892;2023-06-19T12:06:21;31.80;92.30
20102;DHT22;10210;52.284;9.892;2023-06-19T12:08:47;31.90;92.20
20102;DHT22;10210;52.284;9.892;2023-06-19T12:11:12;31.80;92.00
20102;DHT22;10210;52.284;9.892;2023-06-19T12:13:40;31.80;92.10
20102;DHT22;10210;52.284;9.892;2023-06-19T12:16:07;31.80;92.30
20102;DHT22;10210;52.284;9.892;2023-06-19T12:18:36;31.80;92.20
20102;DHT22;10210;52.284;9.892;2023-06-19T12:21:03;31.80;92.50
20102;DHT22;10210;52.284;9.892;2023-06-19T12:23:29;31.80;92.60
20102;DHT22;10210;52.284;9.892;2023-06-19T12:25:56;31.90;92.30
20102;DHT22;10210;52.284;9.892;2023-06-19T12:28:22;31.90;92.30
20102;DHT22;10210;52.284;9.892;2023-06-19T12:30:48;32.00;92.40
20102;DHT22;10210;52.284;9.892;2023-06-19T12:33:17;32.00;92.30
20102;DHT22;10210;52.284;9.892;2023-06-19T12:35:44;32.10;92.40
20102;DHT22;10210;52.284;9.892;2023-06-19T12:38:10;32.20;92.40
20102;DHT22;10210;52.284;9.892;2023-06-19T12:40:36;32.30;92.20
20102;DHT22;10210;52.284;9.892;2023-06-19T12:43:04;32.30;92.20
20102;DHT22;10210;52.284;9.892;2023-06-19T12:45:30;32.40;92.10
20102;DHT22;10210;52.284;9.892;2023-06-19T12:47:56;32.50;92.00
20102;DHT22;10210;52.284;9.892;2023-06-19T12:50:21;32.50;92.20
20102;DHT22;10210;52.284;9.892;2023-06-19T12:52:47;32.60;92.30
20102;DHT22;10210;52.284;9.892;2023-06-19T12:55:14;32.70;92.40
20102;DHT22;10210;52.284;9.892;2023-06-19T12:57:39;32.70;92.30
20102;DHT22;10210;52.284;9.892;2023-06-19T13:00:09;32.80;92.20
20102;DHT22;10210;52.284;9.892;2023-06-19T13:02:40;32.80;92.10
20102;DHT22;10210;52.284;9.892;2023-06-19T13:05:08;32.80;91.80
20102;DHT22;10210;52.284;9.892;2023-06-19T13:07:35;32.80;91.90
20102;DHT22;10210;52.284;9.892;2023-06-19T13:10:01;32.70;91.60
20102;DHT22;10210;52.284;9.892;2023-06-19T13:12:26;32.70;91.60
20102;DHT22;10210;52.284;9.892;2023-06-19T13:14:52;32.70;91.60
20102;DHT22;10210;52.284;9.892;2023-06-19T13:17:18;32.60;91.80
20102;DHT22;10210;52.284;9.892;2023-06-19T13:19:44;32.60;91.80
20102;DHT22;10210;52.284;9.892;2023-06-19T13:22:10;32.60;92.10
20102;DHT22;10210;52.284;9.892;2023-06-19T13:24:36;32.60;91.90
20102;DHT22;10210;52.284;9.892;2023-06-19T13:27:01;32.60;92.30
20102;DHT22;10210;52.284;9.892;2023-06-19T13:29:27;32.60;92.20
20102;DHT22;10210;52.284;9.892;2023-06-19T13:31:53;32.60;92.10
20102;DHT22;10210;52.284;9.892;2023-06-19T13:34:19;32.60;92.00
20102;DHT22;10210;52.284;9.892;2023-06-19T13:36:46;32.60;92.10
20102;DHT22;10210;52.284;9.892;2023-06-19T13:39:12;32.60;92.00
20102;DHT22;10210;52.284;9.892;2023-06-19T13:41:38;32.60;92.20
20102;DHT22;10210;52.284;9.892;2023-06-19T13:44:04;32.60;91.80
20102;DHT22;10210;52.284;9.892;2023-06-19T13:46:30;32.60;91.70
20102;DHT22;10210;52.284;9.892;2023-06-19T13:48:57;32.60;91.90
20102;DHT22;10210;52.284;9.892;2023-06-19T13:51:23;32.60;91.90
20102;DHT22;10210;52.284;9.892;2023-06-19T13:53:50;32.70;92.20
20102;DHT22;10210;52.284;9.892;2023-06-19T13:56:17;32.80;92.10
20102;DHT22;10210;52.284;9.892;2023-06-19T13:58:43;32.80;91.70
20102;DHT22;10210;52.284;9.892;2023-06-19T14:01:09;32.80;91.50
20102;DHT22;10210;52.284;9.892;2023-06-19T14:03:37;32.80;91.60
20102;DHT22;10210;52.284;9.892;2023-06-19T14:06:05;32.90;91.50
20102;DHT22;10210;52.284;9.892;2023-06-19T14:08:30;33.00;91.60
20102;DHT22;10210;52.284;9.892;2023-06-19T14:10:56;33.00;91.50
20102;DHT22;10210;52.284;9.892;2023-06-19T14:13:22;33.00;91.50
20102;DHT22;10210;52.284;9.892;2023-06-19T14:15:47;33.10;91.30
20102;DHT22;10210;52.284;9.892;2023-06-19T14:18:13;33.10;91.30
20102;DHT22;10210;52.284;9.892;2023-06-19T14:20:39;33.10;91.20
20102;DHT22;10210;52.284;9.892;2023-06-19T14:23:07;33.20;90.80
20102;DHT22;10210;52.284;9.892;2023-06-19T14:25:33;33.10;90.50
20102;DHT22;10210;52.284;9.892;2023-06-19T14:27:59;33.10;90.50
20102;DHT22;10210;52.284;9.892;2023-06-19T14:30:25;33.10;90.50
20102;DHT22;10210;52.284;9.892;2023-06-19T14:32:50;33.00;90.80
20102;DHT22;10210;52.284;9.892;2023-06-19T14:35:16;33.00;90.30
20102;DHT22;10210;52.284;9.892;2023-06-19T14:37:42;33.00;90.40
20102;DHT22;10210;52.284;9.892;2023-06-19T14:40:09;32.90;90.30
20102;DHT22;10210;52.284;9.892;2023-06-19T14:42:35;32.80;90.10
20102;DHT22;10210;52.284;9.892;2023-06-19T14:45:00;32.80;90.30
20102;DHT22;10210;52.284;9.892;2023-06-19T14:47:26;32.80;90.40
20102;DHT22;10210;52.284;9.892;2023-06-19T14:49:52;32.70;90.40
20102;DHT22;10210;52.284;9.892;2023-06-19T14:52:19;32.80;90.40
20102;DHT22;10210;52.284;9.892;2023-06-19T14:54:46;32.70;90.30
20102;DHT22;10210;52.284;9.892;2023-06-19T14:57:11;32.70;90.20
20102;DHT22;10210;52.284;9.892;2023-06-19T14:59:37;32.70;90.20
20102;DHT22;10210;52.284;9.892;2023-06-19T15:02:03;32.60;90.20
20102;DHT22;10210;52.284;9.892;2023-06-19T15:04:28;32.60;90.30
20102;DHT22;10210;52.284;9.892;2023-06-19T15:06:54;32.60;90.30
20102;DHT22;10210;52.284;9.892;2023-06-19T15:09:21;32.50;90.50
20102;DHT22;10210;52.284;9.892;2023-06-19T15:11:46;32.40;90.60
20102;DHT22;10210;52.284;9.892;2023-06-19T15:14:12;32.30;90.80
20102;DHT22;10210;52.284;9.892;2023-06-19T15:16:39;32.30;90.90
20102;DHT22;10210;52.284;9.892;2023-06-19T15:19:04;32.20;91.00
20102;DHT22;10210;52.284;9.892;2023-06-19T15:21:30;32.10;90.90
20102;DHT22;10210;52.284;9.892;2023-06-19T15:23:56;32.00;91.00
20102;DHT22;10210;52.284;9.892;2023-06-19T15:26:22;32.00;91.20
20102;DHT22;10210;52.284;9.892;2023-06-19T15:28:48;31.90;91.20
20102;DHT22;10210;52.284;9.892;2023-06-19T15:31:14;31.90;91.20
20102;DHT22;10210;52.284;9.892;2023-06-19T15:33:41;31.80;91.20
20102;DHT22;10210;52.284;9.892;2023-06-19T15:36:07;31.90;91.30